sensor_id;sensor_type;location;lat;lon;timestamp;temperature;humidity
7461;DHT22;6757;52.258;12.840;2023-02-02T00:01:18;4.00;99.90
7461;DHT22;6757;52.258;12.840;2023-02-02T00:03:47;4.00;99.90
7461;DHT22;6757;52.258;12.840;2023-02-02T00:06:15;4.10;99.90
7461;DHT22;6757;52.258;12.840;2023-02-02T00:08:42;4.10;99.90
7461;DHT22;6757;52.258;12.840;2023-02-02T00:11:10;4.10;99.90
7461;DHT22;6757;52.258;12.840;2023-02-02T00:13:37;4.10;99.90
7461;DHT22;6757;52.258;12.840;2023-02-02T00:16:20;4.20;99.90
7461;DHT22;6757;52.258;12.840;2023-02-02T00:18:54;4.20;99.90
7461;DHT22;6757;52.258;12.840;2023-02-02T00:21:25;4.20;99.90
7461;DHT22;6757;52.258;12.840;2023-02-02T00:23:52;4.30;99.90
7461;DHT22;6757;52.258;12.840;2023-02-02T00:26:19;4.30;99.90
7461;DHT22;6757;52.258;12.840;2023-02-02T00:28:46;4.40;99.90
7461;DHT22;6757;52.258;12.840;2023-02-02T00:31:13;4.40;99.90
7461;DHT22;6757;52.258;12.840;2023-02-02T00:33:43;4.40;99.90
7461;DHT22;6757;52.258;12.840;2023-02-02T00:36:12;4.50;99.90
7461;DHT22;6757;52.258;12.840;2023-02-02T00:38:38;4.50;99.90
7461;DHT22;6757;52.258;12.840;2023-02-02T00:41:05;4.50;99.90
7461;DHT22;6757;52.258;12.840;2023-02-02T00:43:32;4.60;99.90
7461;DHT22;6757;52.258;12.840;2023-02-02T00:45:59;4.60;99.90
7461;DHT22;6757;52.258;12.840;2023-02-02T00:48:25;4.60;99.90
7461;DHT22;6757;52.258;12.840;2023-02-02T00:50:52;4.70;99.90
7461;DHT22;6757;52.258;12.840;2023-02-02T00:53:21;4.70;99.90
7461;DHT22;6757;52.258;12.840;2023-02-02T00:55:48;4.70;99.90
7461;DHT22;6757;52.258;12.840;2023-02-02T00:58:14;4.70;99.90
7461;DHT22;6757;52.258;12.840;2023-02-02T01:00:41;4.80;99.90
7461;DHT22;6757;52.258;12.840;2023-02-02T01:03:08;4.80;99.90
7461;DHT22;6757;52.258;12.840;2023-02-02T01:05:37;4.80;99.90
7461;DHT22;6757;52.258;12.840;2023-02-02T01:08:05;4.80;99.90
7461;DHT22;6757;52.258;12.840;2023-02-02T01:10:34;4.90;99.90
7461;DHT22;6757;52.258;12.840;2023-02-02T01:13:01;4.90;99.90
7461;DHT22;6757;52.258;12.840;2023-02-02T01:15:28;4.90;99.90
7461;DHT22;6757;52.258;12.840;2023-02-02T01:17:56;4.90;99.90
7461;DHT22;6757;52.258;12.840;2023-02-02T01:20:23;4.90;99.90
7461;DHT22;6757;52.258;12.840;2023-02-02T01:22:50;4.90;99.90
7461;DHT22;6757;52.258;12.840;2023-02-02T01:25:17;5.00;99.90
7461;DHT22;6757;52.258;12.840;2023-02-02T01:27:46;4.90;99.90
7461;DHT22;6757;52.258;12.840;2023-02-02T01:30:13;4.90;99.90
7461;DHT22;6757;52.258;12.840;2023-02-02T01:32:40;4.90;99.90
7461;DHT22;6757;52.258;12.840;2023-02-02T01:35:07;5.00;99.90
7461;DHT22;6757;52.258;12.840;2023-02-02T01:37:34;5.00;99.90
7461;DHT22;6757;52.258;12.840;2023-02-02T01:40:01;5.00;99.90
7461;DHT22;6757;52.258;12.840;2023-02-02T01:42:28;5.10;99.90
7461;DHT22;6757;52.258;12.840;2023-02-02T01:45:12;5.10;99.90
7461;DHT22;6757;52.258;12.840;2023-02-02T01:47:46;5.10;99.90
7461;DHT22;6757;52.258;12.840;2023-02-02T01:50:16;5.10;99.90
7461;DHT22;6757;52.258;12.840;2023-02-02T01:52:46;5.10;99.90
7461;DHT22;6757;52.258;12.840;2023-02-02T01:55:16;5.10;99.90
7461;DHT22;6757;52.258;12.840;2023-02-02T01:57:48;5.10;99.90
7461;DHT22;6757;52.258;12.840;2023-02-02T02:00:20;5.10;99.90
7461;DHT22;6757;52.258;12.840;2023-02-02T02:02:51;5.10;99.90
7461;DHT22;6757;52.258;12.840;2023-02-02T02:05:24;5.10;99.90
7461;DHT22;6757;52.258;12.840;2023-02-02T02:07:56;5.10;99.90
7461;DHT22;6757;52.258;12.840;2023-02-02T02:10:28;5.10;99.90
7461;DHT22;6757;52.258;12.840;2023-02-02T02:12:55;5.00;99.90
7461;DHT22;6757;52.258;12.840;2023-02-02T02:15:25;5.00;99.90
7461;DHT22;6757;52.258;12.840;2023-02-02T02:18:21;5.00;99.90
7461;DHT22;6757;52.258;12.840;2023-02-02T02:21:31;5.00;99.90
7461;DHT22;6757;52.258;12.840;2023-02-02T02:24:44;5.00;99.90
7461;DHT22;6757;52.258;12.840;2023-02-02T02:28:06;4.90;99.90
7461;DHT22;6757;52.258;12.840;2023-02-02T02:31:07;4.80;99.90
7461;DHT22;6757;52.258;12.840;2023-02-02T02:33:46;4.70;99.90
7461;DHT22;6757;52.258;12.840;2023-02-02T02:36:18;4.70;99.90
7461;DHT22;6757;52.258;12.840;2023-02-02T02:38:52;4.60;99.90
7461;DHT22;6757;52.258;12.840;2023-02-02T02:41:27;4.60;99.90
7461;DHT22;6757;52.258;12.840;2023-02-02T02:44:00;4.50;99.90
7461;DHT22;6757;52.258;12.840;2023-02-02T02:46:30;4.50;99.90
7461;DHT22;6757;52.258;12.840;2023-02-02T02:48:59;4.40;99.90
7461;DHT22;6757;52.258;12.840;2023-02-02T02:51:42;4.40;99.90
7461;DHT22;6757;52.258;12.840;2023-02-02T02:54:12;4.40;99.90
7461;DHT22;6757;52.258;12.840;2023-02-02T02:59:46;4.30;99.90
7461;DHT22;6757;52.258;12.840;2023-02-02T03:02:28;4.30;99.90
7461;DHT22;6757;52.258;12.840;2023-02-02T03:05:07;4.20;99.90
7461;DHT22;6757;52.258;12.840;2023-02-02T03:07:43;4.20;99.90
7461;DHT22;6757;52.258;12.840;2023-02-02T03:10:15;4.20;99.90
7461;DHT22;6757;52.258;12.840;2023-02-02T03:12:46;4.20;99.90
7461;DHT22;6757;52.258;12.840;2023-02-02T03:15:15;4.10;99.90
7461;DHT22;6757;52.258;12.840;2023-02-02T03:17:44;4.10;99.90
7461;DHT22;6757;52.258;12.840;2023-02-02T03:20:15;4.10;99.90
7461;DHT22;6757;52.258;12.840;2023-02-02T03:22:42;4.10;99.90
7461;DHT22;6757;52.258;12.840;2023-02-02T03:25:09;4.10;99.90
7461;DHT22;6757;52.258;12.840;2023-02-02T03:27:37;4.10;99.90
7461;DHT22;6757;52.258;12.840;2023-02-02T03:30:05;4.10;99.90
7461;DHT22;6757;52.258;12.840;2023-02-02T03:32:33;4.10;99.90
7461;DHT22;6757;52.258;12.840;2023-02-02T03:35:00;4.10;99.90
7461;DHT22;6757;52.258;12.840;2023-02-02T03:37:28;4.10;99.90
7461;DHT22;6757;52.258;12.840;2023-02-02T03:39:55;4.20;99.90
7461;DHT22;6757;52.258;12.840;2023-02-02T03:42:22;4.20;99.90
7461;DHT22;6757;52.258;12.840;2023-02-02T03:44:49;4.20;99.90
7461;DHT22;6757;52.258;12.840;2023-02-02T03:47:16;4.20;99.90
7461;DHT22;6757;52.258;12.840;2023-02-02T03:49:42;4.30;99.90
7461;DHT22;6757;52.258;12.840;2023-02-02T03:52:09;4.30;99.90
7461;DHT22;6757;52.258;12.840;2023-02-02T03:54:37;4.30;99.90
7461;DHT22;6757;52.258;12.840;2023-02-02T03:57:04;4.40;99.90
7461;DHT22;6757;52.258;12.840;2023-02-02T03:59:31;4.40;99.90
7461;DHT22;6757;52.258;12.840;2023-02-02T04:01:58;4.40;99.90
7461;DHT22;6757;52.258;12.840;2023-02-02T04:04:25;4.40;99.90
7461;DHT22;6757;52.258;12.840;2023-02-02T04:06:52;4.50;99.90
7461;DHT22;6757;52.258;12.840;2023-02-02T04:09:19;4.50;99.90
7461;DHT22;6757;52.258;12.840;2023-02-02T04:11:47;4.40;99.90
7461;DHT22;6757;52.258;12.840;2023-02-02T04:14:14;4.50;99.90
7461;DHT22;6757;52.258;12.840;2023-02-02T04:16:41;4.50;99.90
7461;DHT22;6757;52.258;12.840;2023-02-02T04:19:07;4.50;99.90
7461;DHT22;6757;52.258;12.840;2023-02-02T04:21:34;4.50;99.90
7461;DHT22;6757;52.258;12.840;2023-02-02T04:24:01;4.60;99.90
7461;DHT22;6757;52.258;12.840;2023-02-02T04:26:28;4.60;99.90
7461;DHT22;6757;52.258;12.840;2023-02-02T04:28:56;4.60;99.90
7461;DHT22;6757;52.258;12.840;2023-02-02T04:31:23;4.60;99.90
7461;DHT22;6757;52.258;12.840;2023-02-02T04:33:51;4.60;99.90
7461;DHT22;6757;52.258;12.840;2023-02-02T04:36:18;4.70;99.90
7461;DHT22;6757;52.258;12.840;2023-02-02T04:38:48;4.70;99.90
7461;DHT22;6757;52.258;12.840;2023-02-02T04:41:15;4.70;99.90
7461;DHT22;6757;52.258;12.840;2023-02-02T04:43:43;4.70;99.90
7461;DHT22;6757;52.258;12.840;2023-02-02T04:46:12;4.70;99.90
7461;DHT22;6757;52.258;12.840;2023-02-02T04:48:39;4.70;99.90
7461;DHT22;6757;52.258;12.840;2023-02-02T04:51:09;4.70;99.90
7461;DHT22;6757;52.258;12.840;2023-02-02T04:53:38;4.70;99.90
7461;DHT22;6757;52.258;12.840;2023-02-02T04:56:07;4.70;99.90
7461;DHT22;6757;52.258;12.840;2023-02-02T04:58:34;4.70;99.90
7461;DHT22;6757;52.258;12.840;2023-02-02T05:01:07;4.60;99.90
7461;DHT22;6757;52.258;12.840;2023-02-02T05:03:36;4.60;99.90
7461;DHT22;6757;52.258;12.840;2023-02-02T05:06:04;4.60;99.90
7461;DHT22;6757;52.258;12.840;2023-02-02T05:08:31;4.60;99.90
7461;DHT22;6757;52.258;12.840;2023-02-02T05:10:58;4.60;99.90
7461;DHT22;6757;52.258;12.840;2023-02-02T05:13:25;4.60;99.90
7461;DHT22;6757;52.258;12.840;2023-02-02T05:15:53;4.50;99.90
7461;DHT22;6757;52.258;12.840;2023-02-02T05:18:21;4.50;99.90
7461;DHT22;6757;52.258;12.840;2023-02-02T05:20:51;4.50;99.90
7461;DHT22;6757;52.258;12.840;2023-02-02T05:23:19;4.40;99.90
7461;DHT22;6757;52.258;12.840;2023-02-02T05:25:51;4.30;99.90
7461;DHT22;6757;52.258;12.840;2023-02-02T05:28:19;4.30;99.90
7461;DHT22;6757;52.258;12.840;2023-02-02T05:30:46;4.20;99.90
7461;DHT22;6757;52.258;12.840;2023-02-02T05:33:13;4.20;99.90
7461;DHT22;6757;52.258;12.840;2023-02-02T05:35:43;4.20;99.90
7461;DHT22;6757;52.258;12.840;2023-02-02T05:38:12;4.10;99.90
7461;DHT22;6757;52.258;12.840;2023-02-02T05:40:39;4.10;99.90
7461;DHT22;6757;52.258;12.840;2023-02-02T05:43:06;4.10;99.90
7461;DHT22;6757;52.258;12.840;2023-02-02T05:45:33;4.10;99.90
7461;DHT22;6757;52.258;12.840;2023-02-02T05:47:59;4.10;99.90
7461;DHT22;6757;52.258;12.840;2023-02-02T05:50:26;4.10;99.90
7461;DHT22;6757;52.258;12.840;2023-02-02T05:52:53;4.10;99.90
7461;DHT22;6757;52.258;12.840;2023-02-02T05:55:22;4.10;99.90
7461;DHT22;6757;52.258;12.840;2023-02-02T05:57:48;4.10;99.90
7461;DHT22;6757;52.258;12.840;2023-02-02T06:00:16;4.10;99.90
7461;DHT22;6757;52.258;12.840;2023-02-02T06:02:43;4.10;99.90
7461;DHT22;6757;52.258;12.840;2023-02-02T06:05:10;4.20;99.90
7461;DHT22;6757;52.258;12.840;2023-02-02T06:07:37;4.20;99.90
7461;DHT22;6757;52.258;12.840;2023-02-02T06:10:04;4.20;99.90
7461;DHT22;6757;52.258;12.840;2023-02-02T06:12:33;4.20;99.90
7461;DHT22;6757;52.258;12.840;2023-02-02T06:15:00;4.30;99.90
7461;DHT22;6757;52.258;12.840;2023-02-02T06:17:27;4.30;99.90
7461;DHT22;6757;52.258;12.840;2023-02-02T06:19:54;4.30;99.90
7461;DHT22;6757;52.258;12.840;2023-02-02T06:22:21;4.30;99.90
7461;DHT22;6757;52.258;12.840;2023-02-02T06:24:48;4.30;99.90
7461;DHT22;6757;52.258;12.840;2023-02-02T06:27:17;4.30;99.90
7461;DHT22;6757;52.258;12.840;2023-02-02T06:29:46;4.40;99.90
7461;DHT22;6757;52.258;12.840;2023-02-02T06:32:13;4.40;99.90
7461;DHT22;6757;52.258;12.840;2023-02-02T06:34:40;4.40;99.90
7461;DHT22;6757;52.258;12.840;2023-02-02T06:37:06;4.40;99.90
7461;DHT22;6757;52.258;12.840;2023-02-02T06:39:33;4.40;99.90
7461;DHT22;6757;52.258;12.840;2023-02-02T06:42:00;4.40;99.90
7461;DHT22;6757;52.258;12.840;2023-02-02T06:44:27;4.40;99.90
7461;DHT22;6757;52.258;12.840;2023-02-02T06:46:56;4.40;99.90
7461;DHT22;6757;52.258;12.840;2023-02-02T06:49:23;4.40;99.90
7461;DHT22;6757;52.258;12.840;2023-02-02T06:51:49;4.40;99.90
7461;DHT22;6757;52.258;12.840;2023-02-02T06:54:16;4.40;99.90
7461;DHT22;6757;52.258;12.840;2023-02-02T06:56:43;4.40;99.90
7461;DHT22;6757;52.258;12.840;2023-02-02T06:59:10;4.40;99.90
7461;DHT22;6757;52.258;12.840;2023-02-02T07:01:37;4.40;99.90
7461;DHT22;6757;52.258;12.840;2023-02-02T07:04:05;4.30;99.90
7461;DHT22;6757;52.258;12.840;2023-02-02T07:06:32;4.30;99.90
7461;DHT22;6757;52.258;12.840;2023-02-02T07:08:59;4.30;99.90
7461;DHT22;6757;52.258;12.840;2023-02-02T07:11:26;4.30;99.90
7461;DHT22;6757;52.258;12.840;2023-02-02T07:13:53;4.30;99.90
7461;DHT22;6757;52.258;12.840;2023-02-02T07:16:20;4.30;99.90
7461;DHT22;6757;52.258;12.840;2023-02-02T07:18:47;4.30;99.90
7461;DHT22;6757;52.258;12.840;2023-02-02T07:21:17;4.30;99.90
7461;DHT22;6757;52.258;12.840;2023-02-02T07:23:45;4.30;99.90
7461;DHT22;6757;52.258;12.840;2023-02-02T07:26:13;4.30;99.90
7461;DHT22;6757;52.258;12.840;2023-02-02T07:28:41;4.30;99.90
7461;DHT22;6757;52.258;12.840;2023-02-02T07:31:12;4.30;99.90
7461;DHT22;6757;52.258;12.840;2023-02-02T07:33:41;4.30;99.90
7461;DHT22;6757;52.258;12.840;2023-02-02T07:36:08;4.30;99.90
7461;DHT22;6757;52.258;12.840;2023-02-02T07:38:36;4.30;99.90
7461;DHT22;6757;52.258;12.840;2023-02-02T07:41:04;4.30;99.90
7461;DHT22;6757;52.258;12.840;2023-02-02T07:43:30;4.30;99.90
7461;DHT22;6757;52.258;12.840;2023-02-02T07:45:59;4.30;99.90
7461;DHT22;6757;52.258;12.840;2023-02-02T07:48:28;4.30;99.90
7461;DHT22;6757;52.258;12.840;2023-02-02T07:50:58;4.30;99.90
7461;DHT22;6757;52.258;12.840;2023-02-02T07:53:25;4.30;99.90
7461;DHT22;6757;52.258;12.840;2023-02-02T07:56:04;4.30;99.90
7461;DHT22;6757;52.258;12.840;2023-02-02T07:58:32;4.40;99.90
7461;DHT22;6757;52.258;12.840;2023-02-02T08:01:00;4.30;99.90
7461;DHT22;6757;52.258;12.840;2023-02-02T08:03:27;4.30;99.90
7461;DHT22;6757;52.258;12.840;2023-02-02T08:05:55;4.30;99.90
7461;DHT22;6757;52.258;12.840;2023-02-02T08:08:22;4.30;99.90
7461;DHT22;6757;52.258;12.840;2023-02-02T08:10:49;4.30;99.90
7461;DHT22;6757;52.258;12.840;2023-02-02T08:13:17;4.30;99.90
7461;DHT22;6757;52.258;12.840;2023-02-02T08:15:44;4.30;99.90
7461;DHT22;6757;52.258;12.840;2023-02-02T08:18:12;4.30;99.90
7461;DHT22;6757;52.258;12.840;2023-02-02T08:20:39;4.30;99.90
7461;DHT22;6757;52.258;12.840;2023-02-02T08:23:05;4.40;99.90
7461;DHT22;6757;52.258;12.840;2023-02-02T08:25:38;4.40;99.90
7461;DHT22;6757;52.258;12.840;2023-02-02T08:28:05;4.50;99.90
7461;DHT22;6757;52.258;12.840;2023-02-02T08:30:33;4.50;99.90
7461;DHT22;6757;52.258;12.840;2023-02-02T08:33:00;4.60;99.90
7461;DHT22;6757;52.258;12.840;2023-02-02T08:35:27;4.60;99.90
7461;DHT22;6757;52.258;12.840;2023-02-02T08:37:54;4.70;99.90
7461;DHT22;6757;52.258;12.840;2023-02-02T08:40:21;4.70;99.90
7461;DHT22;6757;52.258;12.840;2023-02-02T08:42:52;4.80;99.90
7461;DHT22;6757;52.258;12.840;2023-02-02T08:45:20;4.80;99.90
7461;DHT22;6757;52.258;12.840;2023-02-02T08:47:48;4.90;99.90
7461;DHT22;6757;52.258;12.840;2023-02-02T08:50:16;4.90;99.90
7461;DHT22;6757;52.258;12.840;2023-02-02T08:52:43;4.90;99.90
7461;DHT22;6757;52.258;12.840;2023-02-02T08:55:10;5.00;99.90
7461;DHT22;6757;52.258;12.840;2023-02-02T08:57:37;5.00;99.90
7461;DHT22;6757;52.258;12.840;2023-02-02T09:00:05;5.00;99.90
7461;DHT22;6757;52.258;12.840;2023-02-02T09:02:32;5.00;99.90
7461;DHT22;6757;52.258;12.840;2023-02-02T09:05:00;5.00;99.90
7461;DHT22;6757;52.258;12.840;2023-02-02T09:07:27;5.00;99.90
7461;DHT22;6757;52.258;12.840;2023-02-02T09:09:54;5.00;99.90
7461;DHT22;6757;52.258;12.840;2023-02-02T09:12:22;5.00;99.90
7461;DHT22;6757;52.258;12.840;2023-02-02T09:14:50;4.90;99.90
7461;DHT22;6757;52.258;12.840;2023-02-02T09:17:17;4.80;99.90
7461;DHT22;6757;52.258;12.840;2023-02-02T09:19:44;4.80;99.90
7461;DHT22;6757;52.258;12.840;2023-02-02T09:22:12;4.80;99.90
7461;DHT22;6757;52.258;12.840;2023-02-02T09:24:39;4.70;99.90
7461;DHT22;6757;52.258;12.840;2023-02-02T09:27:05;4.70;99.90
7461;DHT22;6757;52.258;12.840;2023-02-02T09:29:32;4.70;99.90
7461;DHT22;6757;52.258;12.840;2023-02-02T09:31:59;4.70;99.90
7461;DHT22;6757;52.258;12.840;2023-02-02T09:34:26;4.70;99.90
7461;DHT22;6757;52.258;12.840;2023-02-02T09:36:53;4.70;99.90
7461;DHT22;6757;52.258;12.840;2023-02-02T09:39:21;4.70;99.90
7461;DHT22;6757;52.258;12.840;2023-02-02T09:44:59;4.60;99.90
7461;DHT22;6757;52.258;12.840;2023-02-02T09:47:47;4.60;99.90
7461;DHT22;6757;52.258;12.840;2023-02-02T09:50:28;4.50;99.90
7461;DHT22;6757;52.258;12.840;2023-02-02T09:53:03;4.50;99.90
7461;DHT22;6757;52.258;12.840;2023-02-02T09:55:34;4.50;99.90
7461;DHT22;6757;52.258;12.840;2023-02-02T09:58:09;4.50;99.90
7461;DHT22;6757;52.258;12.840;2023-02-02T10:00:44;4.50;99.90
7461;DHT22;6757;52.258;12.840;2023-02-02T10:03:15;4.50;99.90
7461;DHT22;6757;52.258;12.840;2023-02-02T10:05:50;4.50;99.90
7461;DHT22;6757;52.258;12.840;2023-02-02T10:08:26;4.50;99.90
7461;DHT22;6757;52.258;12.840;2023-02-02T10:10:59;4.60;99.90
7461;DHT22;6757;52.258;12.840;2023-02-02T10:13:31;4.70;99.90
7461;DHT22;6757;52.258;12.840;2023-02-02T10:16:03;4.70;99.90
7461;DHT22;6757;52.258;12.840;2023-02-02T10:18:40;4.70;99.90
7461;DHT22;6757;52.258;12.840;2023-02-02T10:21:15;4.70;99.90
7461;DHT22;6757;52.258;12.840;2023-02-02T10:23:48;4.80;99.90
7461;DHT22;6757;52.258;12.840;2023-02-02T10:26:19;4.80;99.90
7461;DHT22;6757;52.258;12.840;2023-02-02T10:29:06;4.90;99.90
7461;DHT22;6757;52.258;12.840;2023-02-02T10:31:42;5.00;99.90
7461;DHT22;6757;52.258;12.840;2023-02-02T10:34:15;5.10;99.90
7461;DHT22;6757;52.258;12.840;2023-02-02T10:37:05;5.20;99.90
7461;DHT22;6757;52.258;12.840;2023-02-02T10:39:54;5.30;99.90
7461;DHT22;6757;52.258;12.840;2023-02-02T10:42:58;5.40;99.90
7461;DHT22;6757;52.258;12.840;2023-02-02T10:45:56;5.50;99.90
7461;DHT22;6757;52.258;12.840;2023-02-02T10:48:27;5.50;99.90
7461;DHT22;6757;52.258;12.840;2023-02-02T10:51:03;5.60;99.90
7461;DHT22;6757;52.258;12.840;2023-02-02T10:53:32;5.60;99.90
7461;DHT22;6757;52.258;12.840;2023-02-02T10:56:02;5.60;99.90
7461;DHT22;6757;52.258;12.840;2023-02-02T10:58:37;5.60;99.90
7461;DHT22;6757;52.258;12.840;2023-02-02T11:01:07;5.60;99.90
7461;DHT22;6757;52.258;12.840;2023-02-02T11:03:37;5.60;99.90
7461;DHT22;6757;52.258;12.840;2023-02-02T11:06:06;5.60;99.90
7461;DHT22;6757;52.258;12.840;2023-02-02T11:08:52;5.60;99.90
7461;DHT22;6757;52.258;12.840;2023-02-02T11:11:26;5.60;99.90
7461;DHT22;6757;52.258;12.840;2023-02-02T11:14:00;5.70;99.90
7461;DHT22;6757;52.258;12.840;2023-02-02T11:16:29;5.70;99.90
7461;DHT22;6757;52.258;12.840;2023-02-02T11:18:57;5.70;99.90
7461;DHT22;6757;52.258;12.840;2023-02-02T11:21:25;5.80;99.90
7461;DHT22;6757;52.258;12.840;2023-02-02T11:23:55;5.80;99.90
7461;DHT22;6757;52.258;12.840;2023-02-02T11:26:24;5.90;99.90
7461;DHT22;6757;52.258;12.840;2023-02-02T11:28:53;5.90;99.90
7461;DHT22;6757;52.258;12.840;2023-02-02T11:31:33;5.90;99.90
7461;DHT22;6757;52.258;12.840;2023-02-02T11:34:09;5.90;99.90
7461;DHT22;6757;52.258;12.840;2023-02-02T11:37:00;5.90;99.90
7461;DHT22;6757;52.258;12.840;2023-02-02T11:39:37;5.90;99.90
7461;DHT22;6757;52.258;12.840;2023-02-02T11:42:06;5.90;99.90
7461;DHT22;6757;52.258;12.840;2023-02-02T11:44:34;6.00;99.90
7461;DHT22;6757;52.258;12.840;2023-02-02T11:47:05;6.00;99.90
7461;DHT22;6757;52.258;12.840;2023-02-02T11:49:41;6.00;99.90
7461;DHT22;6757;52.258;12.840;2023-02-02T11:52:15;6.10;99.90
7461;DHT22;6757;52.258;12.840;2023-02-02T11:54:46;6.10;99.90
7461;DHT22;6757;52.258;12.840;2023-02-02T11:57:17;6.10;99.90
7461;DHT22;6757;52.258;12.840;2023-02-02T11:59:47;6.20;99.90
7461;DHT22;6757;52.258;12.840;2023-02-02T12:02:29;6.20;99.90
7461;DHT22;6757;52.258;12.840;2023-02-02T12:05:14;6.20;99.90
7461;DHT22;6757;52.258;12.840;2023-02-02T12:07:58;6.20;99.90
7461;DHT22;6757;52.258;12.840;2023-02-02T12:10:29;6.20;99.90
7461;DHT22;6757;52.258;12.840;2023-02-02T12:13:04;6.20;99.90
7461;DHT22;6757;52.258;12.840;2023-02-02T12:15:42;6.20;99.90
7461;DHT22;6757;52.258;12.840;2023-02-02T12:18:25;6.20;99.90
7461;DHT22;6757;52.258;12.840;2023-02-02T12:21:04;6.20;99.90
7461;DHT22;6757;52.258;12.840;2023-02-02T12:23:45;6.20;99.90
7461;DHT22;6757;52.258;12.840;2023-02-02T12:26:21;6.20;99.90
7461;DHT22;6757;52.258;12.840;2023-02-02T12:29:10;6.20;99.90
7461;DHT22;6757;52.258;12.840;2023-02-02T12:31:51;6.20;99.90
7461;DHT22;6757;52.258;12.840;2023-02-02T12:34:31;6.10;99.90
7461;DHT22;6757;52.258;12.840;2023-02-02T12:37:11;6.20;99.90
7461;DHT22;6757;52.258;12.840;2023-02-02T12:39:53;6.30;99.90
7461;DHT22;6757;52.258;12.840;2023-02-02T12:42:50;6.30;99.90
7461;DHT22;6757;52.258;12.840;2023-02-02T12:48:35;6.50;99.90
7461;DHT22;6757;52.258;12.840;2023-02-02T12:51:20;6.50;99.90
7461;DHT22;6757;52.258;12.840;2023-02-02T12:54:04;6.50;99.90
7461;DHT22;6757;52.258;12.840;2023-02-02T12:56:47;6.50;99.90
7461;DHT22;6757;52.258;12.840;2023-02-02T12:59:30;6.50;99.90
7461;DHT22;6757;52.258;12.840;2023-02-02T13:02:17;6.40;99.90
7461;DHT22;6757;52.258;12.840;2023-02-02T13:04:59;6.30;99.90
7461;DHT22;6757;52.258;12.840;2023-02-02T13:07:41;6.10;99.90
7461;DHT22;6757;52.258;12.840;2023-02-02T13:10:18;6.00;99.90
7461;DHT22;6757;52.258;12.840;2023-02-02T13:12:52;6.00;99.90
7461;DHT22;6757;52.258;12.840;2023-02-02T13:15:21;6.00;99.90
7461;DHT22;6757;52.258;12.840;2023-02-02T13:17:52;6.10;99.90
7461;DHT22;6757;52.258;12.840;2023-02-02T13:20:25;6.10;99.90
7461;DHT22;6757;52.258;12.840;2023-02-02T13:23:00;6.20;99.90
7461;DHT22;6757;52.258;12.840;2023-02-02T13:25:34;6.40;99.90
7461;DHT22;6757;52.258;12.840;2023-02-02T13:28:10;6.70;99.90
7461;DHT22;6757;52.258;12.840;2023-02-02T13:30:44;7.00;99.90
7461;DHT22;6757;52.258;12.840;2023-02-02T13:33:16;7.20;99.90
7461;DHT22;6757;52.258;12.840;2023-02-02T13:35:50;7.30;99.90
7461;DHT22;6757;52.258;12.840;2023-02-02T13:38:22;7.30;99.90
7461;DHT22;6757;52.258;12.840;2023-02-02T13:40:50;7.20;99.90
7461;DHT22;6757;52.258;12.840;2023-02-02T13:43:27;7.20;99.90
7461;DHT22;6757;52.258;12.840;2023-02-02T13:46:05;7.10;99.90
7461;DHT22;6757;52.258;12.840;2023-02-02T13:48:40;7.00;99.90
7461;DHT22;6757;52.258;12.840;2023-02-02T13:54:32;6.70;99.90
7461;DHT22;6757;52.258;12.840;2023-02-02T13:57:45;6.70;99.90
7461;DHT22;6757;52.258;12.840;2023-02-02T14:00:22;6.90;99.90
7461;DHT22;6757;52.258;12.840;2023-02-02T14:02:52;7.20;99.90
7461;DHT22;6757;52.258;12.840;2023-02-02T14:05:23;7.30;99.90
7461;DHT22;6757;52.258;12.840;2023-02-02T14:07:56;7.20;99.90
7461;DHT22;6757;52.258;12.840;2023-02-02T14:10:31;7.10;99.90
7461;DHT22;6757;52.258;12.840;2023-02-02T14:13:13;7.00;99.90
7461;DHT22;6757;52.258;12.840;2023-02-02T14:16:01;6.80;99.90
7461;DHT22;6757;52.258;12.840;2023-02-02T14:18:53;6.60;99.90
7461;DHT22;6757;52.258;12.840;2023-02-02T14:24:41;6.40;99.90
7461;DHT22;6757;52.258;12.840;2023-02-02T14:30:28;6.30;99.90
7461;DHT22;6757;52.258;12.840;2023-02-02T14:36:13;6.20;99.90
7461;DHT22;6757;52.258;12.840;2023-02-02T14:39:09;6.10;99.90
7461;DHT22;6757;52.258;12.840;2023-02-02T14:41:58;6.10;99.90
7461;DHT22;6757;52.258;12.840;2023-02-02T14:45:20;6.00;99.90
7461;DHT22;6757;52.258;12.840;2023-02-02T14:47:51;6.00;99.90
7461;DHT22;6757;52.258;12.840;2023-02-02T14:50:25;5.90;99.90
7461;DHT22;6757;52.258;12.840;2023-02-02T14:53:06;5.90;99.90
7461;DHT22;6757;52.258;12.840;2023-02-02T14:55:51;5.90;99.90
7461;DHT22;6757;52.258;12.840;2023-02-02T14:58:25;5.80;99.90
7461;DHT22;6757;52.258;12.840;2023-02-02T15:01:07;5.80;99.90
7461;DHT22;6757;52.258;12.840;2023-02-02T15:03:46;5.80;99.90
7461;DHT22;6757;52.258;12.840;2023-02-02T15:06:39;5.80;99.90
7461;DHT22;6757;52.258;12.840;2023-02-02T15:09:26;5.70;99.90
7461;DHT22;6757;52.258;12.840;2023-02-02T15:12:15;5.70;99.90
7461;DHT22;6757;52.258;12.840;2023-02-02T15:14:54;5.60;99.90
7461;DHT22;6757;52.258;12.840;2023-02-02T15:17:33;5.60;99.90
7461;DHT22;6757;52.258;12.840;2023-02-02T15:20:13;5.50;99.90
7461;DHT22;6757;52.258;12.840;2023-02-02T15:22:49;5.50;99.90
7461;DHT22;6757;52.258;12.840;2023-02-02T15:25:24;5.50;99.90
7461;DHT22;6757;52.258;12.840;2023-02-02T15:27:57;5.60;99.90
7461;DHT22;6757;52.258;12.840;2023-02-02T15:30:29;5.60;99.90
7461;DHT22;6757;52.258;12.840;2023-02-02T15:33:03;5.60;99.90
7461;DHT22;6757;52.258;12.840;2023-02-02T15:35:46;5.60;99.90
7461;DHT22;6757;52.258;12.840;2023-02-02T15:38:15;5.50;99.90
7461;DHT22;6757;52.258;12.840;2023-02-02T15:40:44;5.60;99.90
7461;DHT22;6757;52.258;12.840;2023-02-02T15:43:12;5.70;99.90
7461;DHT22;6757;52.258;12.840;2023-02-02T15:45:42;5.60;99.90
7461;DHT22;6757;52.258;12.840;2023-02-02T15:48:21;5.60;99.90
7461;DHT22;6757;52.258;12.840;2023-02-02T15:50:51;5.50;99.90
7461;DHT22;6757;52.258;12.840;2023-02-02T15:53:23;5.40;99.90
7461;DHT22;6757;52.258;12.840;2023-02-02T15:55:52;5.30;99.90
7461;DHT22;6757;52.258;12.840;2023-02-02T15:58:28;5.20;99.90
7461;DHT22;6757;52.258;12.840;2023-02-02T16:01:05;5.10;99.90
7461;DHT22;6757;52.258;12.840;2023-02-02T16:03:46;5.00;99.90
7461;DHT22;6757;52.258;12.840;2023-02-02T16:06:16;4.90;99.90
7461;DHT22;6757;52.258;12.840;2023-02-02T16:08:44;4.70;99.90
7461;DHT22;6757;52.258;12.840;2023-02-02T16:11:13;4.70;99.90
7461;DHT22;6757;52.258;12.840;2023-02-02T16:13:44;4.60;99.90
7461;DHT22;6757;52.258;12.840;2023-02-02T16:16:24;4.50;99.90
7461;DHT22;6757;52.258;12.840;2023-02-02T16:19:04;4.40;99.90
7461;DHT22;6757;52.258;12.840;2023-02-02T16:21:43;4.30;99.90
7461;DHT22;6757;52.258;12.840;2023-02-02T16:24:16;4.20;99.90
7461;DHT22;6757;52.258;12.840;2023-02-02T16:26:45;4.10;99.90
7461;DHT22;6757;52.258;12.840;2023-02-02T16:29:13;4.00;99.90
7461;DHT22;6757;52.258;12.840;2023-02-02T16:31:43;3.90;99.90
7461;DHT22;6757;52.258;12.840;2023-02-02T16:34:15;3.80;99.90
7461;DHT22;6757;52.258;12.840;2023-02-02T16:36:43;3.70;99.90
7461;DHT22;6757;52.258;12.840;2023-02-02T16:39:29;3.60;99.90
7461;DHT22;6757;52.258;12.840;2023-02-02T16:42:07;3.50;99.90
7461;DHT22;6757;52.258;12.840;2023-02-02T16:44:39;3.40;99.90
7461;DHT22;6757;52.258;12.840;2023-02-02T16:47:31;3.40;99.90
7461;DHT22;6757;52.258;12.840;2023-02-02T16:53:08;3.10;99.90
7461;DHT22;6757;52.258;12.840;2023-02-02T16:55:47;3.00;99.90
7461;DHT22;6757;52.258;12.840;2023-02-02T16:58:15;2.90;99.90
7461;DHT22;6757;52.258;12.840;2023-02-02T17:00:56;2.90;99.90